createdAt,value
2019-05-23T00:00:25.001Z,1013.68
2019-05-23T00:01:24.981Z,1013.65
2019-05-23T00:02:24.994Z,1013.75
2019-05-23T00:03:25.002Z,1013.68
2019-05-23T00:04:24.956Z,1013.71
2019-05-23T00:05:24.946Z,1013.70
2019-05-23T00:06:24.937Z,1013.74
2019-05-23T00:07:24.950Z,1013.69
2019-05-23T00:08:24.912Z,1013.70
2019-05-23T00:09:24.909Z,1013.73
2019-05-23T00:10:24.896Z,1013.68
2019-05-23T00:11:24.877Z,1013.70
2019-05-23T00:12:24.872Z,1013.66
2019-05-23T00:13:24.886Z,1013.69
2019-05-23T00:14:24.858Z,1013.68
2019-05-23T00:15:24.839Z,1013.64
2019-05-23T00:16:24.818Z,1013.71
2019-05-23T00:17:24.816Z,1013.69
2019-05-23T00:18:24.817Z,1013.72
2019-05-23T00:19:24.796Z,1013.68
2019-05-23T00:20:24.812Z,1013.68
2019-05-23T00:21:24.786Z,1013.73
2019-05-23T00:22:24.764Z,1013.67
2019-05-23T00:23:24.764Z,1013.67
2019-05-23T00:24:24.742Z,1013.68
2019-05-23T00:25:24.740Z,1013.70
2019-05-23T00:26:24.713Z,1013.71
2019-05-23T00:27:24.722Z,1013.69
2019-05-23T00:28:24.710Z,1013.67
2019-05-23T00:29:24.687Z,1013.65
2019-05-23T00:30:24.699Z,1013.68
2019-05-23T00:31:24.672Z,1013.67
2019-05-23T00:32:24.657Z,1013.71
2019-05-23T00:33:24.691Z,1013.69
2019-05-23T00:34:24.633Z,1013.69
2019-05-23T00:35:24.650Z,1013.60
2019-05-23T00:36:24.691Z,1013.66
2019-05-23T00:37:24.634Z,1013.63
2019-05-23T00:38:24.586Z,1013.63
2019-05-23T00:39:24.594Z,1013.69
2019-05-23T00:40:24.610Z,1013.64
2019-05-23T00:41:24.577Z,1013.68
2019-05-23T00:42:24.549Z,1013.69
2019-05-23T00:43:24.597Z,1013.67
2019-05-23T00:44:24.533Z,1013.70
2019-05-23T00:45:24.532Z,1013.65
2019-05-23T00:46:24.513Z,1013.69
2019-05-23T00:47:24.495Z,1013.66
2019-05-23T00:48:24.504Z,1013.68
2019-05-23T00:49:24.495Z,1013.73
2019-05-23T00:50:24.455Z,1013.67
2019-05-23T00:51:24.456Z,1013.70
2019-05-23T00:52:24.436Z,1013.69
2019-05-23T00:53:24.440Z,1013.73
2019-05-23T00:54:24.435Z,1013.78
2019-05-23T00:55:24.434Z,1013.79
2019-05-23T00:56:24.402Z,1013.79
2019-05-23T00:57:24.400Z,1013.78
2019-05-23T00:58:24.402Z,1013.80
2019-05-23T00:59:27.600Z,1013.82
2019-05-23T01:00:24.372Z,1013.75
2019-05-23T01:01:24.344Z,1013.76
2019-05-23T01:02:24.353Z,1013.81
2019-05-23T01:03:24.334Z,1013.77
2019-05-23T01:04:24.328Z,1013.82
2019-05-23T01:05:24.324Z,1013.81
2019-05-23T01:06:24.306Z,1013.88
2019-05-23T01:07:24.278Z,1013.86
2019-05-23T01:08:24.268Z,1013.83
2019-05-23T01:09:24.254Z,1013.81
2019-05-23T01:10:24.261Z,1013.89
2019-05-23T01:11:24.234Z,1013.86
2019-05-23T01:12:24.222Z,1013.94
2019-05-23T01:13:24.210Z,1013.88
2019-05-23T01:14:24.214Z,1013.90
2019-05-23T01:15:24.206Z,1013.87
2019-05-23T01:16:24.198Z,1013.90
2019-05-23T01:17:24.168Z,1013.82
2019-05-23T01:18:24.229Z,1013.85
2019-05-23T01:19:24.164Z,1013.88
2019-05-23T01:20:24.150Z,1013.89
2019-05-23T01:21:24.188Z,1013.88
2019-05-23T01:22:24.138Z,1013.89
2019-05-23T01:23:24.107Z,1013.91
2019-05-23T01:24:24.093Z,1013.90
2019-05-23T01:25:24.105Z,1013.91
2019-05-23T01:26:24.089Z,1013.89
2019-05-23T01:27:24.062Z,1013.98
2019-05-23T01:28:24.059Z,1013.92
2019-05-23T01:29:24.063Z,1013.90
2019-05-23T01:30:24.044Z,1013.89
2019-05-23T01:31:24.034Z,1013.94
2019-05-23T01:32:24.009Z,1013.91
2019-05-23T01:33:23.997Z,1013.92
2019-05-23T01:34:23.984Z,1013.91
2019-05-23T01:35:23.992Z,1013.94
2019-05-23T01:36:24.001Z,1013.90
2019-05-23T01:37:23.951Z,1013.98
2019-05-23T01:38:23.946Z,1013.91
2019-05-23T01:39:23.931Z,1013.94
2019-05-23T01:40:23.936Z,1013.94
2019-05-23T01:41:23.916Z,1014.01
2019-05-23T01:42:23.919Z,1013.99
2019-05-23T01:43:23.897Z,1013.98
2019-05-23T01:44:23.896Z,1014.00
2019-05-23T01:45:23.900Z,1014.01
2019-05-23T01:46:23.863Z,1014.04
2019-05-23T01:47:23.853Z,1013.98
2019-05-23T01:48:23.840Z,1013.99
2019-05-23T01:49:23.820Z,1013.97
2019-05-23T01:50:23.829Z,1014.03
2019-05-23T01:51:23.802Z,1014.02
2019-05-23T01:52:23.795Z,1014.01
2019-05-23T01:53:23.779Z,1014.02
2019-05-23T01:54:23.779Z,1013.99
2019-05-23T01:55:23.781Z,1014.06
2019-05-23T01:56:23.751Z,1014.08
2019-05-23T01:57:23.746Z,1014.13
2019-05-23T01:58:23.741Z,1014.04
2019-05-23T01:59:23.712Z,1014.06
2019-05-23T02:00:23.729Z,1014.09
2019-05-23T02:01:23.694Z,1014.12
2019-05-23T02:02:23.707Z,1014.09
2019-05-23T02:03:23.679Z,1014.07
2019-05-23T02:04:23.663Z,1014.14
2019-05-23T02:05:23.677Z,1014.10
2019-05-23T02:06:23.645Z,1014.11
2019-05-23T02:07:23.639Z,1014.12
2019-05-23T02:08:23.615Z,1014.10
2019-05-23T02:09:23.620Z,1014.13
2019-05-23T02:10:23.624Z,1014.09
2019-05-23T02:11:23.604Z,1014.04
2019-05-23T02:12:23.593Z,1014.09
2019-05-23T02:13:23.558Z,1014.09
2019-05-23T02:14:23.573Z,1014.05
2019-05-23T02:15:23.551Z,1014.12
2019-05-23T02:16:23.542Z,1014.12
2019-05-23T02:17:23.520Z,1014.06
2019-05-23T02:18:23.516Z,1014.17
2019-05-23T02:19:23.508Z,1014.13
2019-05-23T02:20:23.498Z,1014.08
2019-05-23T02:21:23.482Z,1014.13
2019-05-23T02:22:23.465Z,1014.13
2019-05-23T02:23:23.463Z,1014.08
2019-05-23T02:24:23.440Z,1014.07
2019-05-23T02:25:23.456Z,1014.03
2019-05-23T02:26:23.429Z,1014.14
2019-05-23T02:27:23.414Z,1014.08
2019-05-23T02:28:23.404Z,1014.11
2019-05-23T02:29:23.392Z,1014.05
2019-05-23T02:30:33.722Z,1014.07
2019-05-23T02:31:24.383Z,1014.07
2019-05-23T02:32:23.374Z,1014.06
2019-05-23T02:33:23.353Z,1014.07
2019-05-23T02:34:23.333Z,1014.07
2019-05-23T02:35:23.336Z,1014.07
2019-05-23T02:36:23.322Z,1014.06
2019-05-23T02:37:23.299Z,1014.06
2019-05-23T02:38:23.293Z,1014.09
2019-05-23T02:39:23.290Z,1014.15
2019-05-23T02:40:23.275Z,1014.06
2019-05-23T02:41:23.283Z,1014.13
2019-05-23T02:42:23.247Z,1014.16
2019-05-23T02:43:23.238Z,1014.10
2019-05-23T02:44:23.224Z,1014.06
2019-05-23T02:45:23.225Z,1014.13
2019-05-23T02:46:23.219Z,1014.06
2019-05-23T02:47:23.190Z,1014.16
2019-05-23T02:48:23.192Z,1014.05
2019-05-23T02:49:23.176Z,1014.02
2019-05-23T02:50:23.170Z,1014.03
2019-05-23T02:51:23.168Z,1014.07
2019-05-23T02:52:23.149Z,1014.04
2019-05-23T02:53:23.122Z,1014.08
2019-05-23T02:54:23.131Z,1014.07
2019-05-23T02:55:23.115Z,1014.06
2019-05-23T02:56:23.116Z,1014.02
2019-05-23T02:57:23.110Z,1014.05
2019-05-23T02:58:23.080Z,1014.12
2019-05-23T02:59:23.079Z,1014.08
2019-05-23T03:00:23.081Z,1014.05
2019-05-23T03:01:23.065Z,1014.10
2019-05-23T03:02:23.041Z,1014.14
2019-05-23T03:03:23.022Z,1014.16
2019-05-23T03:04:23.005Z,1014.15
2019-05-23T03:05:23.004Z,1014.09
2019-05-23T03:06:23.024Z,1014.16
2019-05-23T03:07:22.995Z,1014.12
2019-05-23T03:08:22.977Z,1014.15
2019-05-23T03:09:22.951Z,1014.11
2019-05-23T03:10:22.942Z,1014.10
2019-05-23T03:11:22.939Z,1014.09
2019-05-23T03:12:25.297Z,1014.08
2019-05-23T03:13:22.904Z,1014.13
2019-05-23T03:14:22.956Z,1014.08
2019-05-23T03:15:22.882Z,1014.15
2019-05-23T03:16:22.870Z,1014.08
2019-05-23T03:17:22.883Z,1014.18
2019-05-23T03:18:22.870Z,1014.16
2019-05-23T03:19:22.840Z,1014.12
2019-05-23T03:20:22.837Z,1014.09
2019-05-23T03:21:22.816Z,1014.17
2019-05-23T03:22:22.837Z,1014.08
2019-05-23T03:23:22.798Z,1014.15
2019-05-23T03:24:22.789Z,1014.16
2019-05-23T03:25:22.776Z,1014.13
2019-05-23T03:26:22.794Z,1014.15
2019-05-23T03:27:22.784Z,1014.16
2019-05-23T03:28:22.760Z,1014.17
2019-05-23T03:29:22.737Z,1014.21
2019-05-23T03:30:22.765Z,1014.21
2019-05-23T03:31:29.514Z,1014.25
2019-05-23T03:32:23.792Z,1014.15
2019-05-23T03:33:22.704Z,1014.21
2019-05-23T03:34:22.829Z,1014.20
2019-05-23T03:35:22.693Z,1014.13
2019-05-23T03:36:22.682Z,1014.19
2019-05-23T03:37:22.648Z,1014.20
2019-05-23T03:38:22.657Z,1014.24
2019-05-23T03:39:22.624Z,1014.16
2019-05-23T03:40:22.624Z,1014.20
2019-05-23T03:41:22.610Z,1014.24
2019-05-23T03:42:22.604Z,1014.20
2019-05-23T03:43:22.622Z,1014.29
2019-05-23T03:44:22.577Z,1014.24
2019-05-23T03:45:22.568Z,1014.29
2019-05-23T03:46:22.559Z,1014.24
2019-05-23T03:47:22.543Z,1014.30
2019-05-23T03:48:22.553Z,1014.25
2019-05-23T03:49:22.553Z,1014.22
2019-05-23T03:50:22.517Z,1014.29
2019-05-23T03:51:22.497Z,1014.28
2019-05-23T03:52:22.509Z,1014.34
2019-05-23T03:53:22.523Z,1014.32
2019-05-23T03:54:22.464Z,1014.29
2019-05-23T03:55:22.465Z,1014.33
2019-05-23T03:56:22.444Z,1014.30
2019-05-23T03:57:25.594Z,1014.28
2019-05-23T03:58:22.450Z,1014.27
2019-05-23T03:59:22.414Z,1014.31
2019-05-23T04:00:22.406Z,1014.34
2019-05-23T04:01:22.403Z,1014.33
2019-05-23T04:02:22.385Z,1014.37
2019-05-23T04:03:22.409Z,1014.36
2019-05-23T04:04:22.355Z,1014.37
2019-05-23T04:05:22.374Z,1014.38
2019-05-23T04:06:22.336Z,1014.41
2019-05-23T04:07:22.328Z,1014.44
2019-05-23T04:08:22.350Z,1014.39
2019-05-23T04:09:22.306Z,1014.41
2019-05-23T04:10:22.293Z,1014.42
2019-05-23T04:11:22.307Z,1014.41
2019-05-23T04:12:22.300Z,1014.43
2019-05-23T04:13:22.292Z,1014.43
2019-05-23T04:14:22.257Z,1014.39
2019-05-23T04:15:22.242Z,1014.50
2019-05-23T04:16:22.228Z,1014.47
2019-05-23T04:17:22.241Z,1014.51
2019-05-23T04:18:22.204Z,1014.54
2019-05-23T04:19:22.219Z,1014.50
2019-05-23T04:20:22.191Z,1014.51
2019-05-23T04:21:22.170Z,1014.49
2019-05-23T04:22:22.171Z,1014.49
2019-05-23T04:23:22.170Z,1014.53
2019-05-23T04:24:22.157Z,1014.50
2019-05-23T04:25:22.137Z,1014.51
2019-05-23T04:26:22.126Z,1014.49
2019-05-23T04:27:22.121Z,1014.51
2019-05-23T04:28:22.101Z,1014.49
2019-05-23T04:29:22.123Z,1014.43
2019-05-23T04:30:22.086Z,1014.49
2019-05-23T04:31:22.070Z,1014.55
2019-05-23T04:32:22.089Z,1014.48
2019-05-23T04:33:22.061Z,1014.46
2019-05-23T04:34:22.057Z,1014.49
2019-05-23T04:35:22.036Z,1014.53
2019-05-23T04:36:22.043Z,1014.52
2019-05-23T04:37:22.049Z,1014.56
2019-05-23T04:38:22.004Z,1014.50
2019-05-23T04:39:22.020Z,1014.58
2019-05-23T04:40:22.073Z,1014.58
2019-05-23T04:41:21.992Z,1014.55
2019-05-23T04:42:21.951Z,1014.55
2019-05-23T04:43:21.963Z,1014.54
2019-05-23T04:44:21.955Z,1014.60
2019-05-23T04:45:21.929Z,1014.57
2019-05-23T04:46:21.907Z,1014.63
2019-05-23T04:47:21.902Z,1014.62
2019-05-23T04:48:21.888Z,1014.70
2019-05-23T04:49:21.904Z,1014.61
2019-05-23T04:50:21.881Z,1014.66
2019-05-23T04:51:21.892Z,1014.65
2019-05-23T04:52:21.846Z,1014.67
2019-05-23T04:53:21.841Z,1014.70
2019-05-23T04:54:21.837Z,1014.76
2019-05-23T04:55:21.821Z,1014.78
2019-05-23T04:56:21.810Z,1014.74
2019-05-23T04:57:21.806Z,1014.74
2019-05-23T04:58:21.804Z,1014.76
2019-05-23T04:59:21.785Z,1014.73
2019-05-23T05:00:21.756Z,1014.75
2019-05-23T05:01:21.756Z,1014.70
2019-05-23T05:02:26.510Z,1014.78
2019-05-23T05:03:22.734Z,1014.78
2019-05-23T05:04:21.740Z,1014.75
2019-05-23T05:05:21.706Z,1014.79
2019-05-23T05:06:21.696Z,1014.75
2019-05-23T05:07:21.696Z,1014.75
2019-05-23T05:08:21.669Z,1014.78
2019-05-23T05:09:21.691Z,1014.74
2019-05-23T05:10:21.668Z,1014.80
2019-05-23T05:11:21.643Z,1014.80
2019-05-23T05:12:21.643Z,1014.75
2019-05-23T05:13:21.625Z,1014.76
2019-05-23T05:14:21.626Z,1014.78
2019-05-23T05:15:21.603Z,1014.82
2019-05-23T05:16:21.590Z,1014.89
2019-05-23T05:17:21.596Z,1014.86
2019-05-23T05:18:21.587Z,1014.81
2019-05-23T05:19:21.610Z,1014.81
2019-05-23T05:20:21.555Z,1014.84
2019-05-23T05:21:21.535Z,1014.84
2019-05-23T05:22:21.546Z,1014.83
2019-05-23T05:23:21.509Z,1014.90
2019-05-23T05:24:21.506Z,1014.97
2019-05-23T05:25:21.514Z,1014.83
2019-05-23T05:26:21.485Z,1014.90
2019-05-23T05:27:21.477Z,1014.82
2019-05-23T05:28:21.476Z,1014.85
2019-05-23T05:29:21.447Z,1014.93
2019-05-23T05:30:21.455Z,1014.92
2019-05-23T05:31:21.429Z,1014.92
2019-05-23T05:32:21.428Z,1014.87
2019-05-23T05:33:21.411Z,1014.91
2019-05-23T05:34:21.395Z,1014.93
2019-05-23T05:35:21.401Z,1014.91
2019-05-23T05:36:21.374Z,1014.90
2019-05-23T05:37:21.363Z,1014.94
2019-05-23T05:38:21.357Z,1014.85
2019-05-23T05:39:21.349Z,1014.87
2019-05-23T05:40:21.421Z,1014.90
2019-05-23T05:41:21.325Z,1014.95
2019-05-23T05:42:21.319Z,1014.93
2019-05-23T05:43:21.301Z,1014.96
2019-05-23T05:44:21.509Z,1015.00
2019-05-23T05:45:21.305Z,1015.06
2019-05-23T05:46:21.297Z,1014.97
2019-05-23T05:47:21.255Z,1014.97
2019-05-23T05:48:21.244Z,1014.96
2019-05-23T05:49:21.238Z,1014.99
2019-05-23T05:50:21.251Z,1015.01
2019-05-23T05:51:21.234Z,1015.04
2019-05-23T05:52:21.201Z,1014.95
2019-05-23T05:53:21.190Z,1015.00
2019-05-23T05:54:21.178Z,1015.00
2019-05-23T05:55:21.195Z,1015.02
2019-05-23T05:56:21.163Z,1015.06
2019-05-23T05:57:21.169Z,1015.04
2019-05-23T05:58:21.135Z,1015.00
2019-05-23T05:59:21.125Z,1015.02
2019-05-23T06:00:21.151Z,1015.09
2019-05-23T06:01:33.433Z,1015.07
2019-05-23T06:02:22.107Z,1015.16
2019-05-23T06:03:21.123Z,1015.09
2019-05-23T06:04:21.078Z,1015.11
2019-05-23T06:05:21.071Z,1015.05
2019-05-23T06:06:21.098Z,1015.12
2019-05-23T06:07:21.039Z,1015.11
2019-05-23T06:08:21.030Z,1015.13
2019-05-23T06:09:21.020Z,1015.10
2019-05-23T06:10:21.018Z,1015.13
2019-05-23T06:11:21.008Z,1015.16
2019-05-23T06:12:20.996Z,1015.22
2019-05-23T06:13:20.995Z,1015.17
2019-05-23T06:14:20.973Z,1015.10
2019-05-23T06:15:20.951Z,1015.09
2019-05-23T06:16:20.958Z,1015.17
2019-05-23T06:17:20.973Z,1015.19
2019-05-23T06:18:20.916Z,1015.18
2019-05-23T06:19:20.916Z,1015.19
2019-05-23T06:20:20.906Z,1015.22
2019-05-23T06:21:20.906Z,1015.20
2019-05-23T06:22:20.919Z,1015.22
2019-05-23T06:23:20.865Z,1015.24
2019-05-23T06:24:39.035Z,1015.26
2019-05-23T06:25:21.862Z,1015.30
2019-05-23T06:26:20.855Z,1015.19
2019-05-23T06:27:20.830Z,1015.19
2019-05-23T06:28:20.807Z,1015.18
2019-05-23T06:29:20.798Z,1015.19
2019-05-23T06:30:20.795Z,1015.19
2019-05-23T06:31:20.798Z,1015.22
2019-05-23T06:32:20.771Z,1015.29
2019-05-23T06:33:23.691Z,1015.26
2019-05-23T06:34:20.750Z,1015.26
2019-05-23T06:35:20.735Z,1015.24
2019-05-23T06:36:20.745Z,1015.25
2019-05-23T06:37:20.715Z,1015.25
2019-05-23T06:38:20.705Z,1015.26
2019-05-23T06:39:20.717Z,1015.20
2019-05-23T06:40:20.686Z,1015.25
2019-05-23T06:41:20.690Z,1015.15
2019-05-23T06:42:20.670Z,1015.23
2019-05-23T06:43:20.653Z,1015.25
2019-05-23T06:44:20.637Z,1015.21
2019-05-23T06:45:20.650Z,1015.28
2019-05-23T06:46:20.651Z,1015.27
2019-05-23T06:47:20.629Z,1015.26
2019-05-23T06:48:20.599Z,1015.26
2019-05-23T06:49:20.608Z,1015.33
2019-05-23T06:50:20.577Z,1015.31
2019-05-23T06:51:20.577Z,1015.29
2019-05-23T06:52:20.566Z,1015.29
2019-05-23T06:53:20.545Z,1015.27
2019-05-23T06:54:20.533Z,1015.34
2019-05-23T06:55:20.544Z,1015.31
2019-05-23T06:56:20.534Z,1015.35
2019-05-23T06:57:20.516Z,1015.34
2019-05-23T06:58:20.853Z,1015.32
2019-05-23T06:59:20.485Z,1015.38
2019-05-23T07:00:20.475Z,1015.32
2019-05-23T07:01:20.504Z,1015.36
2019-05-23T07:02:20.450Z,1015.34
2019-05-23T07:03:20.449Z,1015.40
2019-05-23T07:04:20.427Z,1015.38
2019-05-23T07:05:20.419Z,1015.48
2019-05-23T07:06:20.431Z,1015.45
2019-05-23T07:07:20.418Z,1015.40
2019-05-23T07:08:20.400Z,1015.47
2019-05-23T07:09:20.433Z,1015.46
2019-05-23T07:10:20.362Z,1015.41
2019-05-23T07:11:20.361Z,1015.44
2019-05-23T07:12:20.359Z,1015.44
2019-05-23T07:13:20.334Z,1015.45
2019-05-23T07:14:20.321Z,1015.56
2019-05-23T07:15:20.314Z,1015.52
2019-05-23T07:16:20.303Z,1015.51
2019-05-23T07:17:20.305Z,1015.51
2019-05-23T07:18:20.278Z,1015.54
2019-05-23T07:19:20.271Z,1015.51
2019-05-23T07:20:20.260Z,1015.50
2019-05-23T07:21:20.250Z,1015.45
2019-05-23T07:22:20.258Z,1015.48
2019-05-23T07:23:20.230Z,1015.48
2019-05-23T07:24:20.216Z,1015.51
2019-05-23T07:25:20.203Z,1015.54
2019-05-23T07:26:20.195Z,1015.55
2019-05-23T07:27:20.365Z,1015.50
2019-05-23T07:28:20.178Z,1015.49
2019-05-23T07:29:20.179Z,1015.47
2019-05-23T07:30:20.184Z,1015.49
2019-05-23T07:31:20.146Z,1015.57
2019-05-23T07:32:20.134Z,1015.53
2019-05-23T07:33:20.142Z,1015.53
2019-05-23T07:34:20.113Z,1015.53
2019-05-23T07:35:20.105Z,1015.57
2019-05-23T07:36:20.088Z,1015.67
2019-05-23T07:37:20.080Z,1015.57
2019-05-23T07:38:20.098Z,1015.59
2019-05-23T07:39:20.062Z,1015.58
2019-05-23T07:40:20.054Z,1015.61
2019-05-23T07:41:20.060Z,1015.63
2019-05-23T07:42:20.026Z,1015.59
2019-05-23T07:43:20.036Z,1015.65
2019-05-23T07:44:20.006Z,1015.57
2019-05-23T07:45:19.999Z,1015.59
2019-05-23T07:46:19.983Z,1015.61
2019-05-23T07:47:20.038Z,1015.58
2019-05-23T07:48:19.993Z,1015.59
2019-05-23T07:49:20.025Z,1015.51
2019-05-23T07:50:19.950Z,1015.54
2019-05-23T07:51:19.958Z,1015.54
2019-05-23T07:52:19.931Z,1015.61
2019-05-23T07:53:19.947Z,1015.57
2019-05-23T07:54:19.903Z,1015.56
2019-05-23T07:55:19.893Z,1015.51
2019-05-23T07:56:19.885Z,1015.53
2019-05-23T07:57:19.873Z,1015.54
2019-05-23T07:58:19.880Z,1015.54
2019-05-23T07:59:19.855Z,1015.56
2019-05-23T08:00:19.889Z,1015.54
2019-05-23T08:01:19.832Z,1015.46
2019-05-23T08:02:19.859Z,1015.57
2019-05-23T08:03:19.830Z,1015.58
2019-05-23T08:04:22.289Z,1015.48
2019-05-23T08:05:19.799Z,1015.58
2019-05-23T08:06:19.776Z,1015.60
2019-05-23T08:07:19.769Z,1015.56
2019-05-23T08:08:19.779Z,1015.54
2019-05-23T08:09:19.741Z,1015.50
2019-05-23T08:10:33.131Z,1015.54
2019-05-23T08:11:20.733Z,1015.57
2019-05-23T08:12:19.713Z,1015.44
2019-05-23T08:13:19.719Z,1015.37
2019-05-23T08:14:19.691Z,1015.42
2019-05-23T08:15:19.685Z,1015.43
2019-05-23T08:16:19.682Z,1015.43
2019-05-23T08:17:19.661Z,1015.45
2019-05-23T08:18:19.683Z,1015.41
2019-05-23T08:19:19.922Z,1015.43
2019-05-23T08:20:19.634Z,1015.42
2019-05-23T08:21:19.621Z,1015.45
2019-05-23T08:22:19.612Z,1015.37
2019-05-23T08:23:19.630Z,1015.43
2019-05-23T08:24:19.596Z,1015.43
2019-05-23T08:25:19.592Z,1015.38
2019-05-23T08:26:19.565Z,1015.42
2019-05-23T08:27:19.567Z,1015.41
2019-05-23T08:28:19.567Z,1015.39
2019-05-23T08:29:25.991Z,1015.41
2019-05-23T08:30:20.526Z,1015.43
2019-05-23T08:31:19.524Z,1015.44
2019-05-23T08:32:19.514Z,1015.37
2019-05-23T08:33:19.511Z,1015.37
2019-05-23T08:34:19.491Z,1015.38
2019-05-23T08:35:19.479Z,1015.33
2019-05-23T08:36:19.489Z,1015.43
2019-05-23T08:37:19.453Z,1015.33
2019-05-23T08:38:19.466Z,1015.35
2019-05-23T08:39:19.426Z,1015.29
2019-05-23T08:40:19.418Z,1015.34
2019-05-23T08:41:19.407Z,1015.41
2019-05-23T08:42:19.395Z,1015.41
2019-05-23T08:43:19.504Z,1015.43
2019-05-23T08:44:19.376Z,1015.37
2019-05-23T08:45:19.360Z,1015.40
2019-05-23T08:46:19.349Z,1015.41
2019-05-23T08:47:19.344Z,1015.43
2019-05-23T08:48:19.343Z,1015.36
2019-05-23T08:49:19.321Z,1015.34
2019-05-23T08:50:19.335Z,1015.35
2019-05-23T08:51:19.322Z,1015.31
2019-05-23T08:52:19.285Z,1015.33
2019-05-23T08:53:19.289Z,1015.32
2019-05-23T08:54:19.273Z,1015.33
2019-05-23T08:55:19.257Z,1015.36
2019-05-23T08:56:19.879Z,1015.36
2019-05-23T08:57:19.237Z,1015.34
2019-05-23T08:58:19.290Z,1015.35
2019-05-23T08:59:19.215Z,1015.28
2019-05-23T09:00:19.215Z,1015.32
2019-05-23T09:01:19.195Z,1015.33
2019-05-23T09:02:19.183Z,1015.35
2019-05-23T09:03:19.182Z,1015.48
2019-05-23T09:04:19.157Z,1015.47
2019-05-23T09:05:19.167Z,1015.46
2019-05-23T09:06:19.200Z,1015.41
2019-05-23T09:07:19.133Z,1015.38
2019-05-23T09:08:19.135Z,1015.38
2019-05-23T09:09:29.117Z,1015.36
2019-05-23T09:10:20.187Z,1015.34
2019-05-23T09:11:19.138Z,1015.32
2019-05-23T09:12:19.164Z,1015.31
2019-05-23T09:13:19.079Z,1015.28
2019-05-23T09:14:19.062Z,1015.30
2019-05-23T09:15:19.052Z,1015.25
2019-05-23T09:16:19.030Z,1015.37
2019-05-23T09:17:19.029Z,1015.39
2019-05-23T09:18:19.054Z,1015.31
2019-05-23T09:19:19.005Z,1015.44
2019-05-23T09:20:18.993Z,1015.37
2019-05-23T09:21:18.976Z,1015.36
2019-05-23T09:22:18.970Z,1015.37
2019-05-23T09:23:18.973Z,1015.42
2019-05-23T09:24:18.948Z,1015.38
2019-05-23T09:25:18.977Z,1015.35
2019-05-23T09:26:18.939Z,1015.33
2019-05-23T09:27:18.918Z,1015.42
2019-05-23T09:28:18.918Z,1015.40
2019-05-23T09:29:18.899Z,1015.38
2019-05-23T09:30:18.894Z,1015.34
2019-05-23T09:31:18.883Z,1015.33
2019-05-23T09:32:19.187Z,1015.35
2019-05-23T09:33:18.868Z,1015.40
2019-05-23T09:34:18.838Z,1015.44
2019-05-23T09:35:21.455Z,1015.35
2019-05-23T09:36:18.816Z,1015.49
2019-05-23T09:37:18.810Z,1015.44
2019-05-23T09:38:18.818Z,1015.35
2019-05-23T09:39:18.797Z,1015.36
2019-05-23T09:40:18.779Z,1015.38
2019-05-23T09:41:18.765Z,1015.40
2019-05-23T09:42:18.763Z,1015.42
2019-05-23T09:43:18.765Z,1015.37
2019-05-23T09:44:18.732Z,1015.33
2019-05-23T09:45:18.722Z,1015.33
2019-05-23T09:46:18.735Z,1015.35
2019-05-23T09:47:18.710Z,1015.41
2019-05-23T09:48:18.725Z,1015.31
2019-05-23T09:49:18.711Z,1015.37
2019-05-23T09:50:18.673Z,1015.33
2019-05-23T09:51:18.804Z,1015.19
2019-05-23T09:52:18.652Z,1015.34
2019-05-23T09:53:18.668Z,1015.36
2019-05-23T09:54:18.648Z,1015.34
2019-05-23T09:55:18.618Z,1015.31
2019-05-23T09:56:18.609Z,1015.31
2019-05-23T09:57:18.601Z,1015.29
2019-05-23T09:58:18.603Z,1015.30
2019-05-23T09:59:18.590Z,1015.24
2019-05-23T10:00:18.630Z,1015.27
2019-05-23T10:01:18.789Z,1015.35
2019-05-23T10:02:18.552Z,1015.28
2019-05-23T10:03:18.558Z,1015.29
2019-05-23T10:04:18.532Z,1015.32
2019-05-23T10:05:18.556Z,1015.30
2019-05-23T10:06:18.504Z,1015.31
2019-05-23T10:07:18.538Z,1015.29
2019-05-23T10:08:18.512Z,1015.30
2019-05-23T10:09:18.488Z,1015.30
2019-05-23T10:10:18.470Z,1015.25
2019-05-23T10:11:18.471Z,1015.26
2019-05-23T10:12:22.161Z,1015.28
2019-05-23T10:13:18.444Z,1015.34
2019-05-23T10:14:18.414Z,1015.36
2019-05-23T10:15:18.404Z,1015.42
2019-05-23T10:16:18.398Z,1015.29
2019-05-23T10:17:18.390Z,1015.43
2019-05-23T10:18:18.389Z,1015.61
2019-05-23T10:19:18.362Z,1015.57
2019-05-23T10:20:18.351Z,1015.64
2019-05-23T10:21:18.345Z,1015.59
2019-05-23T10:22:18.331Z,1015.54
2019-05-23T10:23:18.415Z,1015.44
2019-05-23T10:24:18.308Z,1015.66
2019-05-23T10:25:18.296Z,1015.65
2019-05-23T10:26:18.288Z,1015.50
2019-05-23T10:27:18.299Z,1015.58
2019-05-23T10:28:18.299Z,1015.55
2019-05-23T10:29:18.269Z,1015.56
2019-05-23T10:30:18.262Z,1015.48
2019-05-23T10:31:18.296Z,1015.41
2019-05-23T10:32:18.235Z,1015.34
2019-05-23T10:33:18.256Z,1015.42
2019-05-23T10:34:18.242Z,1015.41
2019-05-23T10:35:18.203Z,1015.34
2019-05-23T10:36:18.194Z,1015.38
2019-05-23T10:37:18.213Z,1015.39
2019-05-23T10:38:18.205Z,1015.35
2019-05-23T10:39:18.241Z,1015.32
2019-05-23T10:40:18.137Z,1015.29
2019-05-23T10:41:18.134Z,1015.18
2019-05-23T10:42:18.178Z,1015.25
2019-05-23T10:43:18.146Z,1015.26
2019-05-23T10:44:18.094Z,1015.28
2019-05-23T10:45:18.184Z,1015.24
2019-05-23T10:46:18.083Z,1015.24
2019-05-23T10:47:18.085Z,1015.23
2019-05-23T10:48:18.084Z,1015.17
2019-05-23T10:49:18.063Z,1015.23
2019-05-23T10:50:18.039Z,1015.28
2019-05-23T10:51:18.024Z,1015.30
2019-05-23T10:52:18.028Z,1015.38
2019-05-23T10:53:18.034Z,1015.32
2019-05-23T10:54:18.163Z,1015.32
2019-05-23T10:55:18.009Z,1015.28
2019-05-23T10:56:20.537Z,1015.34
2019-05-23T10:57:17.971Z,1015.33
2019-05-23T10:58:18.016Z,1015.24
2019-05-23T10:59:17.949Z,1015.39
2019-05-23T11:00:17.948Z,1015.27
2019-05-23T11:01:17.947Z,1015.27
2019-05-23T11:02:17.903Z,1015.37
2019-05-23T11:03:17.924Z,1015.40
2019-05-23T11:04:17.907Z,1015.48
2019-05-23T11:05:17.877Z,1015.45
2019-05-23T11:06:17.865Z,1015.37
2019-05-23T11:07:17.857Z,1015.34
2019-05-23T11:08:17.875Z,1015.38
2019-05-23T11:09:17.857Z,1015.44
2019-05-23T11:10:17.826Z,1015.43
2019-05-23T11:11:17.874Z,1015.41
2019-05-23T11:12:17.822Z,1015.38
2019-05-23T11:13:17.839Z,1015.36
2019-05-23T11:14:17.794Z,1015.33
2019-05-23T11:15:17.780Z,1015.39
2019-05-23T11:16:17.765Z,1015.44
2019-05-23T11:17:17.756Z,1015.37
2019-05-23T11:18:17.792Z,1015.43
2019-05-23T11:19:17.742Z,1015.43
2019-05-23T11:20:17.719Z,1015.41
2019-05-23T11:21:17.720Z,1015.44
2019-05-23T11:22:17.702Z,1015.48
2019-05-23T11:23:17.735Z,1015.48
2019-05-23T11:24:17.734Z,1015.37
2019-05-23T11:25:17.677Z,1015.34
2019-05-23T11:26:17.661Z,1015.46
2019-05-23T11:27:17.664Z,1015.37
2019-05-23T11:28:17.657Z,1015.42
2019-05-23T11:29:17.639Z,1015.46
2019-05-23T11:30:17.640Z,1015.44
2019-05-23T11:31:17.612Z,1015.43
2019-05-23T11:32:20.329Z,1015.42
2019-05-23T11:33:17.651Z,1015.38
2019-05-23T11:34:17.584Z,1015.37
2019-05-23T11:35:17.573Z,1015.34
2019-05-23T11:36:33.937Z,1015.38
2019-05-23T11:37:18.547Z,1015.34
2019-05-23T11:38:17.554Z,1015.41
2019-05-23T11:39:17.546Z,1015.38
2019-05-23T11:40:17.540Z,1015.38
2019-05-23T11:41:17.522Z,1015.40
2019-05-23T11:42:17.524Z,1015.28
2019-05-23T11:43:17.533Z,1015.32
2019-05-23T11:44:17.499Z,1015.32
2019-05-23T11:45:17.483Z,1015.39
2019-05-23T11:46:17.468Z,1015.29
2019-05-23T11:47:17.464Z,1015.36
2019-05-23T11:48:17.465Z,1015.32
2019-05-23T11:49:17.444Z,1015.36
2019-05-23T11:50:17.425Z,1015.23
2019-05-23T11:51:17.434Z,1015.19
2019-05-23T11:52:17.426Z,1015.27
2019-05-23T11:53:17.425Z,1015.28
2019-05-23T11:54:17.377Z,1015.25
2019-05-23T11:55:17.368Z,1015.29
2019-05-23T11:56:17.358Z,1015.25
2019-05-23T11:57:17.366Z,1015.29
2019-05-23T11:58:17.373Z,1015.26
2019-05-23T11:59:17.362Z,1015.11
2019-05-23T12:00:17.317Z,1015.13
2019-05-23T12:01:20.843Z,1015.13
2019-05-23T12:02:17.310Z,1015.07
2019-05-23T12:03:17.318Z,1015.22
2019-05-23T12:04:17.319Z,1015.26
2019-05-23T12:05:17.302Z,1015.27